sensor_id;sensor_type;location;lat;lon;timestamp;P1;durP1;ratioP1;P2;durP2;ratioP2
25988;SDS011;13778;48.236;9.894;2023-09-12T00:00:06;15.50;;;13.77;;
25988;SDS011;13778;48.236;9.894;2023-09-12T00:02:57;19.23;;;13.68;;
25988;SDS011;13778;48.236;9.894;2023-09-12T00:05:51;15.23;;;13.65;;
25988;SDS011;13778;48.236;9.894;2023-09-12T00:08:42;16.27;;;14.00;;
25988;SDS011;13778;48.236;9.894;2023-09-12T00:11:32;17.27;;;14.30;;
25988;SDS011;13778;48.236;9.894;2023-09-12T00:14:23;19.48;;;14.20;;
25988;SDS011;13778;48.236;9.894;2023-09-12T00:17:13;18.48;;;13.45;;
25988;SDS011;13778;48.236;9.894;2023-09-12T00:20:06;14.90;;;13.20;;
25988;SDS011;13778;48.236;9.894;2023-09-12T00:22:57;16.75;;;15.02;;
25988;SDS011;13778;48.236;9.894;2023-09-12T00:25:48;15.70;;;13.75;;
25988;SDS011;13778;48.236;9.894;2023-09-12T00:28:38;19.47;;;14.57;;
25988;SDS011;13778;48.236;9.894;2023-09-12T00:31:29;16.25;;;14.48;;
25988;SDS011;13778;48.236;9.894;2023-09-12T00:34:20;21.15;;;15.65;;
25988;SDS011;13778;48.236;9.894;2023-09-12T00:37:12;17.45;;;15.50;;
25988;SDS011;13778;48.236;9.894;2023-09-12T00:40:02;20.65;;;14.88;;
25988;SDS011;13778;48.236;9.894;2023-09-12T00:42:52;23.35;;;15.57;;
25988;SDS011;13778;48.236;9.894;2023-09-12T00:45:43;19.45;;;15.63;;
25988;SDS011;13778;48.236;9.894;2023-09-12T00:48:33;15.95;;;14.20;;
25988;SDS011;13778;48.236;9.894;2023-09-12T00:51:25;17.23;;;14.45;;
25988;SDS011;13778;48.236;9.894;2023-09-12T00:54:17;22.60;;;14.75;;
25988;SDS011;13778;48.236;9.894;2023-09-12T00:57:07;15.15;;;13.63;;
25988;SDS011;13778;48.236;9.894;2023-09-12T00:59:58;23.50;;;15.18;;
25988;SDS011;13778;48.236;9.894;2023-09-12T01:02:48;20.30;;;15.00;;
25988;SDS011;13778;48.236;9.894;2023-09-12T01:05:41;17.23;;;13.98;;
25988;SDS011;13778;48.236;9.894;2023-09-12T01:08:31;19.15;;;14.00;;
25988;SDS011;13778;48.236;9.894;2023-09-12T01:11:23;20.00;;;14.15;;
25988;SDS011;13778;48.236;9.894;2023-09-12T01:14:14;15.82;;;14.00;;
25988;SDS011;13778;48.236;9.894;2023-09-12T01:17:04;16.02;;;14.38;;
25988;SDS011;13778;48.236;9.894;2023-09-12T01:19:55;17.15;;;14.30;;
25988;SDS011;13778;48.236;9.894;2023-09-12T01:22:52;20.80;;;15.45;;
25988;SDS011;13778;48.236;9.894;2023-09-12T01:25:50;18.52;;;14.95;;
25988;SDS011;13778;48.236;9.894;2023-09-12T01:28:48;17.92;;;15.70;;
25988;SDS011;13778;48.236;9.894;2023-09-12T01:31:40;20.67;;;15.80;;
25988;SDS011;13778;48.236;9.894;2023-09-12T01:34:31;19.33;;;16.17;;
25988;SDS011;13778;48.236;9.894;2023-09-12T01:37:22;20.67;;;16.20;;
25988;SDS011;13778;48.236;9.894;2023-09-12T01:40:12;20.88;;;16.75;;
25988;SDS011;13778;48.236;9.894;2023-09-12T01:43:04;20.13;;;16.67;;
25988;SDS011;13778;48.236;9.894;2023-09-12T01:45:57;18.30;;;16.40;;
25988;SDS011;13778;48.236;9.894;2023-09-12T01:48:48;20.67;;;16.10;;
25988;SDS011;13778;48.236;9.894;2023-09-12T01:51:40;23.85;;;16.70;;
25988;SDS011;13778;48.236;9.894;2023-09-12T01:54:31;19.45;;;16.23;;
25988;SDS011;13778;48.236;9.894;2023-09-12T01:57:22;23.42;;;14.55;;
25988;SDS011;13778;48.236;9.894;2023-09-12T02:00:13;20.42;;;16.88;;
25988;SDS011;13778;48.236;9.894;2023-09-12T02:03:05;21.88;;;15.77;;
25988;SDS011;13778;48.236;9.894;2023-09-12T02:08:46;18.25;;;14.82;;
25988;SDS011;13778;48.236;9.894;2023-09-12T02:11:36;21.35;;;14.80;;
25988;SDS011;13778;48.236;9.894;2023-09-12T02:14:27;20.52;;;15.52;;
25988;SDS011;13778;48.236;9.894;2023-09-12T02:17:17;18.67;;;14.90;;
25988;SDS011;13778;48.236;9.894;2023-09-12T02:20:09;16.70;;;14.73;;
25988;SDS011;13778;48.236;9.894;2023-09-12T02:23:00;18.38;;;14.57;;
25988;SDS011;13778;48.236;9.894;2023-09-12T02:25:50;17.10;;;14.10;;
25988;SDS011;13778;48.236;9.894;2023-09-12T02:28:41;17.42;;;13.48;;
25988;SDS011;13778;48.236;9.894;2023-09-12T02:31:31;19.50;;;15.15;;
25988;SDS011;13778;48.236;9.894;2023-09-12T02:34:22;18.00;;;16.20;;
25988;SDS011;13778;48.236;9.894;2023-09-12T02:37:14;17.85;;;14.40;;
25988;SDS011;13778;48.236;9.894;2023-09-12T02:40:05;18.40;;;14.70;;
25988;SDS011;13778;48.236;9.894;2023-09-12T02:42:55;21.88;;;15.73;;
25988;SDS011;13778;48.236;9.894;2023-09-12T02:45:46;20.80;;;15.18;;
25988;SDS011;13778;48.236;9.894;2023-09-12T02:48:36;17.95;;;13.88;;
25988;SDS011;13778;48.236;9.894;2023-09-12T02:51:28;18.15;;;14.98;;
25988;SDS011;13778;48.236;9.894;2023-09-12T02:54:19;17.45;;;14.93;;
25988;SDS011;13778;48.236;9.894;2023-09-12T03:00:00;20.23;;;15.38;;
25988;SDS011;13778;48.236;9.894;2023-09-12T03:02:50;19.88;;;16.00;;
25988;SDS011;13778;48.236;9.894;2023-09-12T03:05:41;18.42;;;15.15;;
25988;SDS011;13778;48.236;9.894;2023-09-12T03:08:31;16.33;;;14.73;;
25988;SDS011;13778;48.236;9.894;2023-09-12T03:11:25;21.17;;;16.08;;
25988;SDS011;13778;48.236;9.894;2023-09-12T03:14:16;20.63;;;14.80;;
25988;SDS011;13778;48.236;9.894;2023-09-12T03:17:07;17.65;;;14.77;;
25988;SDS011;13778;48.236;9.894;2023-09-12T03:19:57;18.27;;;15.48;;
25988;SDS011;13778;48.236;9.894;2023-09-12T03:22:47;22.80;;;16.15;;
25988;SDS011;13778;48.236;9.894;2023-09-12T03:25:38;14.75;;;13.00;;
25988;SDS011;13778;48.236;9.894;2023-09-12T03:28:30;15.93;;;14.20;;
25988;SDS011;13778;48.236;9.894;2023-09-12T03:34:11;16.17;;;14.10;;
25988;SDS011;13778;48.236;9.894;2023-09-12T03:37:02;20.45;;;15.30;;
25988;SDS011;13778;48.236;9.894;2023-09-12T03:39:52;17.35;;;14.02;;
25988;SDS011;13778;48.236;9.894;2023-09-12T03:42:43;17.08;;;13.65;;
25988;SDS011;13778;48.236;9.894;2023-09-12T03:45:35;17.77;;;13.18;;
25988;SDS011;13778;48.236;9.894;2023-09-12T03:48:25;15.23;;;13.07;;
25988;SDS011;13778;48.236;9.894;2023-09-12T03:51:16;15.88;;;13.02;;
25988;SDS011;13778;48.236;9.894;2023-09-12T03:54:06;17.13;;;15.05;;
25988;SDS011;13778;48.236;9.894;2023-09-12T03:56:57;21.08;;;15.30;;
25988;SDS011;13778;48.236;9.894;2023-09-12T03:59:47;16.05;;;14.07;;
25988;SDS011;13778;48.236;9.894;2023-09-12T04:02:39;16.77;;;14.40;;
25988;SDS011;13778;48.236;9.894;2023-09-12T04:05:30;20.85;;;15.00;;
25988;SDS011;13778;48.236;9.894;2023-09-12T04:08:20;16.77;;;13.82;;
25988;SDS011;13778;48.236;9.894;2023-09-12T04:11:11;16.90;;;13.68;;
25988;SDS011;13778;48.236;9.894;2023-09-12T04:14:01;20.38;;;15.13;;
25988;SDS011;13778;48.236;9.894;2023-09-12T04:16:52;20.85;;;15.35;;
25988;SDS011;13778;48.236;9.894;2023-09-12T04:19:44;21.35;;;16.98;;
25988;SDS011;13778;48.236;9.894;2023-09-12T04:22:34;21.30;;;16.27;;
25988;SDS011;13778;48.236;9.894;2023-09-12T04:25:25;18.45;;;15.88;;
25988;SDS011;13778;48.236;9.894;2023-09-12T04:28:16;22.23;;;16.27;;
25988;SDS011;13778;48.236;9.894;2023-09-12T04:31:06;24.30;;;17.65;;
25988;SDS011;13778;48.236;9.894;2023-09-12T04:33:57;20.63;;;17.10;;
25988;SDS011;13778;48.236;9.894;2023-09-12T04:36:48;19.58;;;16.42;;
25988;SDS011;13778;48.236;9.894;2023-09-12T04:39:39;23.73;;;17.88;;
25988;SDS011;13778;48.236;9.894;2023-09-12T04:42:30;25.73;;;18.00;;
25988;SDS011;13778;48.236;9.894;2023-09-12T04:45:20;24.48;;;17.92;;
25988;SDS011;13778;48.236;9.894;2023-09-12T04:48:11;21.20;;;17.52;;
25988;SDS011;13778;48.236;9.894;2023-09-12T04:51:01;21.80;;;18.05;;
25988;SDS011;13778;48.236;9.894;2023-09-12T04:53:53;23.35;;;17.33;;
25988;SDS011;13778;48.236;9.894;2023-09-12T04:56:44;19.20;;;16.00;;
25988;SDS011;13778;48.236;9.894;2023-09-12T04:59:34;21.52;;;15.65;;
25988;SDS011;13778;48.236;9.894;2023-09-12T05:02:25;22.05;;;16.33;;
25988;SDS011;13778;48.236;9.894;2023-09-12T05:05:15;31.90;;;18.60;;
25988;SDS011;13778;48.236;9.894;2023-09-12T05:08:06;25.08;;;18.67;;
25988;SDS011;13778;48.236;9.894;2023-09-12T05:10:57;24.30;;;17.92;;
25988;SDS011;13778;48.236;9.894;2023-09-12T05:16:38;19.98;;;16.90;;
25988;SDS011;13778;48.236;9.894;2023-09-12T05:19:29;20.70;;;16.08;;
25988;SDS011;13778;48.236;9.894;2023-09-12T05:22:20;19.80;;;16.20;;
25988;SDS011;13778;48.236;9.894;2023-09-12T05:25:10;23.98;;;16.90;;
25988;SDS011;13778;48.236;9.894;2023-09-12T05:28:02;21.65;;;16.27;;
25988;SDS011;13778;48.236;9.894;2023-09-12T05:30:53;25.52;;;17.80;;
25988;SDS011;13778;48.236;9.894;2023-09-12T05:33:44;25.05;;;17.73;;
25988;SDS011;13778;48.236;9.894;2023-09-12T05:36:35;22.60;;;17.33;;
25988;SDS011;13778;48.236;9.894;2023-09-12T05:39:25;22.27;;;16.83;;
25988;SDS011;13778;48.236;9.894;2023-09-12T05:42:16;26.45;;;18.35;;
25988;SDS011;13778;48.236;9.894;2023-09-12T05:45:11;18.02;;;14.77;;
25988;SDS011;13778;48.236;9.894;2023-09-12T05:48:01;29.17;;;18.90;;
25988;SDS011;13778;48.236;9.894;2023-09-12T05:50:52;25.23;;;17.95;;
25988;SDS011;13778;48.236;9.894;2023-09-12T05:53:43;25.80;;;17.92;;
25988;SDS011;13778;48.236;9.894;2023-09-12T05:56:33;26.90;;;18.98;;
25988;SDS011;13778;48.236;9.894;2023-09-12T05:59:24;25.45;;;20.23;;
25988;SDS011;13778;48.236;9.894;2023-09-12T06:02:16;32.70;;;21.27;;
25988;SDS011;13778;48.236;9.894;2023-09-12T06:07:56;26.48;;;19.70;;
25988;SDS011;13778;48.236;9.894;2023-09-12T06:10:46;26.55;;;19.38;;
25988;SDS011;13778;48.236;9.894;2023-09-12T06:13:38;35.65;;;20.38;;
25988;SDS011;13778;48.236;9.894;2023-09-12T06:16:28;27.52;;;21.45;;
25988;SDS011;13778;48.236;9.894;2023-09-12T06:19:20;32.65;;;20.52;;
25988;SDS011;13778;48.236;9.894;2023-09-12T06:25:01;31.77;;;20.27;;
25988;SDS011;13778;48.236;9.894;2023-09-12T06:27:51;30.92;;;21.90;;
25988;SDS011;13778;48.236;9.894;2023-09-12T06:30:42;26.92;;;18.80;;
25988;SDS011;13778;48.236;9.894;2023-09-12T06:33:32;35.53;;;21.92;;
25988;SDS011;13778;48.236;9.894;2023-09-12T06:36:24;34.20;;;21.92;;
25988;SDS011;13778;48.236;9.894;2023-09-12T06:42:05;28.10;;;18.23;;
25988;SDS011;13778;48.236;9.894;2023-09-12T06:44:55;25.35;;;19.50;;
25988;SDS011;13778;48.236;9.894;2023-09-12T06:47:45;30.77;;;19.83;;
25988;SDS011;13778;48.236;9.894;2023-09-12T06:50:36;26.30;;;18.48;;
25988;SDS011;13778;48.236;9.894;2023-09-12T06:53:29;30.13;;;18.98;;
25988;SDS011;13778;48.236;9.894;2023-09-12T06:59:10;21.35;;;16.27;;
25988;SDS011;13778;48.236;9.894;2023-09-12T07:02:00;26.20;;;17.75;;
25988;SDS011;13778;48.236;9.894;2023-09-12T07:04:51;29.80;;;18.17;;
25988;SDS011;13778;48.236;9.894;2023-09-12T07:07:42;23.75;;;17.40;;
25988;SDS011;13778;48.236;9.894;2023-09-12T07:10:33;30.45;;;18.20;;
25988;SDS011;13778;48.236;9.894;2023-09-12T07:13:25;31.23;;;16.98;;
25988;SDS011;13778;48.236;9.894;2023-09-12T07:16:15;33.78;;;16.33;;
25988;SDS011;13778;48.236;9.894;2023-09-12T07:19:06;27.45;;;16.88;;
25988;SDS011;13778;48.236;9.894;2023-09-12T07:21:56;22.48;;;15.90;;
25988;SDS011;13778;48.236;9.894;2023-09-12T07:24:47;23.00;;;15.65;;
25988;SDS011;13778;48.236;9.894;2023-09-12T07:27:38;35.58;;;16.80;;
25988;SDS011;13778;48.236;9.894;2023-09-12T07:30:29;26.23;;;17.00;;
25988;SDS011;13778;48.236;9.894;2023-09-12T07:33:19;22.55;;;17.88;;
25988;SDS011;13778;48.236;9.894;2023-09-12T07:36:10;24.83;;;17.88;;
25988;SDS011;13778;48.236;9.894;2023-09-12T07:39:01;28.05;;;16.35;;
25988;SDS011;13778;48.236;9.894;2023-09-12T07:44:44;28.92;;;15.30;;
25988;SDS011;13778;48.236;9.894;2023-09-12T07:50:24;20.20;;;15.68;;
25988;SDS011;13778;48.236;9.894;2023-09-12T07:53:15;21.95;;;16.63;;
25988;SDS011;13778;48.236;9.894;2023-09-12T07:56:06;25.85;;;17.20;;
25988;SDS011;13778;48.236;9.894;2023-09-12T07:58:57;25.33;;;16.10;;
25988;SDS011;13778;48.236;9.894;2023-09-12T08:01:49;27.52;;;17.08;;
25988;SDS011;13778;48.236;9.894;2023-09-12T08:04:40;25.58;;;16.80;;
25988;SDS011;13778;48.236;9.894;2023-09-12T08:07:30;31.85;;;17.17;;
25988;SDS011;13778;48.236;9.894;2023-09-12T08:10:21;24.75;;;15.73;;
25988;SDS011;13778;48.236;9.894;2023-09-12T08:13:12;24.45;;;15.82;;
25988;SDS011;13778;48.236;9.894;2023-09-12T08:16:02;25.27;;;16.30;;
25988;SDS011;13778;48.236;9.894;2023-09-12T08:18:54;28.00;;;16.25;;
25988;SDS011;13778;48.236;9.894;2023-09-12T08:21:44;24.98;;;17.15;;
25988;SDS011;13778;48.236;9.894;2023-09-12T08:24:35;26.33;;;15.82;;
25988;SDS011;13778;48.236;9.894;2023-09-12T08:27:25;30.10;;;16.25;;
25988;SDS011;13778;48.236;9.894;2023-09-12T08:30:16;25.08;;;15.70;;
25988;SDS011;13778;48.236;9.894;2023-09-12T08:33:06;24.77;;;16.00;;
25988;SDS011;13778;48.236;9.894;2023-09-12T08:35:58;26.95;;;16.17;;
25988;SDS011;13778;48.236;9.894;2023-09-12T08:38:49;21.02;;;15.20;;
25988;SDS011;13778;48.236;9.894;2023-09-12T08:41:39;20.92;;;14.45;;
25988;SDS011;13778;48.236;9.894;2023-09-12T08:44:30;18.42;;;15.90;;
25988;SDS011;13778;48.236;9.894;2023-09-12T08:47:21;20.20;;;15.43;;
25988;SDS011;13778;48.236;9.894;2023-09-12T08:50:12;23.88;;;15.80;;
25988;SDS011;13778;48.236;9.894;2023-09-12T08:53:04;24.15;;;16.20;;
25988;SDS011;13778;48.236;9.894;2023-09-12T08:55:55;19.30;;;15.63;;
25988;SDS011;13778;48.236;9.894;2023-09-12T08:58:45;22.35;;;16.05;;
25988;SDS011;13778;48.236;9.894;2023-09-12T09:01:36;22.15;;;16.80;;
25988;SDS011;13778;48.236;9.894;2023-09-12T09:04:28;27.23;;;16.70;;
25988;SDS011;13778;48.236;9.894;2023-09-12T09:07:19;23.33;;;17.17;;
25988;SDS011;13778;48.236;9.894;2023-09-12T09:10:15;26.73;;;16.25;;
25988;SDS011;13778;48.236;9.894;2023-09-12T09:13:06;21.17;;;16.23;;
25988;SDS011;13778;48.236;9.894;2023-09-12T09:16:11;24.45;;;17.10;;
25988;SDS011;13778;48.236;9.894;2023-09-12T09:19:02;19.58;;;15.70;;
25988;SDS011;13778;48.236;9.894;2023-09-12T09:21:54;17.92;;;15.35;;
25988;SDS011;13778;48.236;9.894;2023-09-12T09:25:06;23.23;;;16.67;;
25988;SDS011;13778;48.236;9.894;2023-09-12T09:28:03;23.85;;;16.42;;
25988;SDS011;13778;48.236;9.894;2023-09-12T09:30:54;20.83;;;15.30;;
25988;SDS011;13778;48.236;9.894;2023-09-12T09:33:45;20.17;;;14.35;;
25988;SDS011;13778;48.236;9.894;2023-09-12T09:36:40;21.17;;;15.13;;
25988;SDS011;13778;48.236;9.894;2023-09-12T09:39:31;17.85;;;14.05;;
25988;SDS011;13778;48.236;9.894;2023-09-12T09:42:22;16.77;;;12.93;;
25988;SDS011;13778;48.236;9.894;2023-09-12T09:45:14;17.70;;;13.50;;
25988;SDS011;13778;48.236;9.894;2023-09-12T09:48:04;15.63;;;13.32;;
25988;SDS011;13778;48.236;9.894;2023-09-12T09:53:46;16.85;;;12.68;;
25988;SDS011;13778;48.236;9.894;2023-09-12T09:56:47;15.77;;;13.15;;
25988;SDS011;13778;48.236;9.894;2023-09-12T09:59:37;16.85;;;13.02;;
25988;SDS011;13778;48.236;9.894;2023-09-12T10:02:29;15.48;;;12.90;;
25988;SDS011;13778;48.236;9.894;2023-09-12T10:05:21;16.08;;;12.05;;
25988;SDS011;13778;48.236;9.894;2023-09-12T10:08:12;16.85;;;12.43;;
25988;SDS011;13778;48.236;9.894;2023-09-12T10:11:06;17.85;;;13.82;;
25988;SDS011;13778;48.236;9.894;2023-09-12T10:13:57;15.77;;;14.27;;
25988;SDS011;13778;48.236;9.894;2023-09-12T10:16:49;16.63;;;14.52;;
25988;SDS011;13778;48.236;9.894;2023-09-12T10:19:43;19.75;;;14.60;;
25988;SDS011;13778;48.236;9.894;2023-09-12T10:22:36;15.20;;;13.63;;
25988;SDS011;13778;48.236;9.894;2023-09-12T10:25:27;20.33;;;13.32;;
25988;SDS011;13778;48.236;9.894;2023-09-12T10:28:18;15.52;;;13.40;;
25988;SDS011;13778;48.236;9.894;2023-09-12T10:31:09;19.30;;;13.30;;
25988;SDS011;13778;48.236;9.894;2023-09-12T10:34:00;16.63;;;11.90;;
25988;SDS011;13778;48.236;9.894;2023-09-12T10:36:54;13.85;;;12.45;;
25988;SDS011;13778;48.236;9.894;2023-09-12T10:39:45;12.98;;;11.70;;
25988;SDS011;13778;48.236;9.894;2023-09-12T10:42:35;15.33;;;11.87;;
25988;SDS011;13778;48.236;9.894;2023-09-12T10:45:27;19.23;;;13.18;;
25988;SDS011;13778;48.236;9.894;2023-09-12T10:48:18;12.48;;;11.18;;
25988;SDS011;13778;48.236;9.894;2023-09-12T10:51:08;11.65;;;10.48;;
25988;SDS011;13778;48.236;9.894;2023-09-12T10:54:02;11.55;;;10.40;;
25988;SDS011;13778;48.236;9.894;2023-09-12T11:00:09;17.67;;;10.25;;
25988;SDS011;13778;48.236;9.894;2023-09-12T11:03:35;11.55;;;10.40;;
25988;SDS011;13778;48.236;9.894;2023-09-12T11:06:20;9.80;;;8.80;;
25988;SDS011;13778;48.236;9.894;2023-09-12T11:09:16;9.65;;;8.65;;
25988;SDS011;13778;48.236;9.894;2023-09-12T11:12:08;13.45;;;9.50;;
25988;SDS011;13778;48.236;9.894;2023-09-12T11:15:22;12.80;;;9.52;;
25988;SDS011;13778;48.236;9.894;2023-09-12T11:18:13;13.52;;;9.10;;
25988;SDS011;13778;48.236;9.894;2023-09-12T11:23:54;11.77;;;10.10;;
25988;SDS011;13778;48.236;9.894;2023-09-12T11:26:56;12.25;;;10.55;;
25988;SDS011;13778;48.236;9.894;2023-09-12T11:29:46;14.40;;;10.75;;
25988;SDS011;13778;48.236;9.894;2023-09-12T11:32:38;13.27;;;10.03;;
25988;SDS011;13778;48.236;9.894;2023-09-12T11:35:29;11.98;;;10.15;;
25988;SDS011;13778;48.236;9.894;2023-09-12T11:38:25;9.47;;;8.63;;
25988;SDS011;13778;48.236;9.894;2023-09-12T11:44:21;12.52;;;8.68;;
25988;SDS011;13778;48.236;9.894;2023-09-12T11:47:12;14.32;;;9.07;;
25988;SDS011;13778;48.236;9.894;2023-09-12T11:50:05;9.13;;;7.85;;
25988;SDS011;13778;48.236;9.894;2023-09-12T11:52:59;9.55;;;8.52;;
25988;SDS011;13778;48.236;9.894;2023-09-12T11:55:49;11.70;;;8.82;;
25988;SDS011;13778;48.236;9.894;2023-09-12T11:58:49;12.57;;;9.40;;
25988;SDS011;13778;48.236;9.894;2023-09-12T12:01:40;13.25;;;9.27;;
25988;SDS011;13778;48.236;9.894;2023-09-12T12:04:30;10.63;;;8.60;;
25988;SDS011;13778;48.236;9.894;2023-09-12T12:07:23;15.23;;;8.48;;
25988;SDS011;13778;48.236;9.894;2023-09-12T12:10:13;8.25;;;7.03;;
25988;SDS011;13778;48.236;9.894;2023-09-12T12:13:04;9.07;;;7.50;;
25988;SDS011;13778;48.236;9.894;2023-09-12T12:15:55;8.18;;;7.03;;
25988;SDS011;13778;48.236;9.894;2023-09-12T12:18:45;12.15;;;7.78;;
25988;SDS011;13778;48.236;9.894;2023-09-12T12:21:36;9.10;;;7.20;;
25988;SDS011;13778;48.236;9.894;2023-09-12T12:24:35;8.57;;;6.90;;
25988;SDS011;13778;48.236;9.894;2023-09-12T12:27:27;8.93;;;7.38;;
25988;SDS011;13778;48.236;9.894;2023-09-12T12:30:18;7.90;;;7.20;;
25988;SDS011;13778;48.236;9.894;2023-09-12T12:33:09;10.60;;;6.72;;
25988;SDS011;13778;48.236;9.894;2023-09-12T12:35:59;8.20;;;6.60;;
25988;SDS011;13778;48.236;9.894;2023-09-12T12:38:50;7.85;;;7.03;;
25988;SDS011;13778;48.236;9.894;2023-09-12T12:41:42;8.43;;;6.97;;
25988;SDS011;13778;48.236;9.894;2023-09-12T12:44:33;8.65;;;7.28;;
25988;SDS011;13778;48.236;9.894;2023-09-12T12:47:26;7.93;;;6.25;;
25988;SDS011;13778;48.236;9.894;2023-09-12T12:50:18;7.70;;;7.00;;
25988;SDS011;13778;48.236;9.894;2023-09-12T12:53:09;13.38;;;7.47;;
25988;SDS011;13778;48.236;9.894;2023-09-12T12:56:00;7.63;;;6.88;;
25988;SDS011;13778;48.236;9.894;2023-09-12T12:58:52;9.93;;;6.80;;
25988;SDS011;13778;48.236;9.894;2023-09-12T13:01:44;11.73;;;7.15;;
25988;SDS011;13778;48.236;9.894;2023-09-12T13:04:35;7.72;;;6.93;;
25988;SDS011;13778;48.236;9.894;2023-09-12T13:07:25;8.60;;;7.15;;
25988;SDS011;13778;48.236;9.894;2023-09-12T13:10:16;8.23;;;6.53;;
25988;SDS011;13778;48.236;9.894;2023-09-12T13:13:06;9.65;;;6.53;;
25988;SDS011;13778;48.236;9.894;2023-09-12T13:15:58;9.40;;;6.57;;
25988;SDS011;13778;48.236;9.894;2023-09-12T13:18:50;7.60;;;6.90;;
25988;SDS011;13778;48.236;9.894;2023-09-12T13:21:40;10.63;;;7.27;;
25988;SDS011;13778;48.236;9.894;2023-09-12T13:24:32;8.18;;;6.38;;
25988;SDS011;13778;48.236;9.894;2023-09-12T13:27:22;9.68;;;6.88;;
25988;SDS011;13778;48.236;9.894;2023-09-12T13:30:13;8.50;;;6.93;;
25988;SDS011;13778;48.236;9.894;2023-09-12T13:33:05;7.47;;;6.63;;
25988;SDS011;13778;48.236;9.894;2023-09-12T13:35:55;9.13;;;6.90;;
25988;SDS011;13778;48.236;9.894;2023-09-12T13:38:46;7.63;;;6.70;;
25988;SDS011;13778;48.236;9.894;2023-09-12T13:44:28;9.07;;;6.37;;
25988;SDS011;13778;48.236;9.894;2023-09-12T13:47:19;7.70;;;6.85;;
25988;SDS011;13778;48.236;9.894;2023-09-12T13:50:13;8.77;;;6.07;;
25988;SDS011;13778;48.236;9.894;2023-09-12T13:53:04;7.40;;;6.60;;
25988;SDS011;13778;48.236;9.894;2023-09-12T13:55:55;7.13;;;6.43;;
25988;SDS011;13778;48.236;9.894;2023-09-12T13:58:47;7.32;;;6.50;;
25988;SDS011;13778;48.236;9.894;2023-09-12T14:01:37;7.00;;;6.30;;
25988;SDS011;13778;48.236;9.894;2023-09-12T14:04:28;8.30;;;6.07;;
25988;SDS011;13778;48.236;9.894;2023-09-12T14:07:19;9.18;;;6.28;;
25988;SDS011;13778;48.236;9.894;2023-09-12T14:10:10;8.50;;;6.30;;
25988;SDS011;13778;48.236;9.894;2023-09-12T14:13:01;10.27;;;6.60;;
25988;SDS011;13778;48.236;9.894;2023-09-12T14:15:51;7.85;;;7.00;;
25988;SDS011;13778;48.236;9.894;2023-09-12T14:18:42;8.57;;;6.43;;
25988;SDS011;13778;48.236;9.894;2023-09-12T14:21:32;7.85;;;6.43;;
25988;SDS011;13778;48.236;9.894;2023-09-12T14:24:24;7.32;;;6.47;;
25988;SDS011;13778;48.236;9.894;2023-09-12T14:27:15;10.60;;;6.93;;
25988;SDS011;13778;48.236;9.894;2023-09-12T14:30:06;7.43;;;6.47;;
25988;SDS011;13778;48.236;9.894;2023-09-12T14:32:57;6.88;;;6.25;;
25988;SDS011;13778;48.236;9.894;2023-09-12T14:35:47;8.93;;;7.23;;
25988;SDS011;13778;48.236;9.894;2023-09-12T14:38:38;10.02;;;6.78;;
25988;SDS011;13778;48.236;9.894;2023-09-12T14:41:29;9.73;;;6.55;;
25988;SDS011;13778;48.236;9.894;2023-09-12T14:44:20;7.65;;;6.75;;
25988;SDS011;13778;48.236;9.894;2023-09-12T14:47:10;10.48;;;6.90;;
25988;SDS011;13778;48.236;9.894;2023-09-12T14:50:01;8.10;;;7.28;;
25988;SDS011;13778;48.236;9.894;2023-09-12T14:52:51;8.45;;;7.32;;
25988;SDS011;13778;48.236;9.894;2023-09-12T14:55:42;11.97;;;7.20;;
25988;SDS011;13778;48.236;9.894;2023-09-12T14:58:34;8.48;;;7.15;;
25988;SDS011;13778;48.236;9.894;2023-09-12T15:01:25;10.52;;;6.47;;
25988;SDS011;13778;48.236;9.894;2023-09-12T15:04:16;11.45;;;6.57;;
25988;SDS011;13778;48.236;9.894;2023-09-12T15:07:06;7.38;;;6.68;;
25988;SDS011;13778;48.236;9.894;2023-09-12T15:09:57;9.52;;;6.53;;
25988;SDS011;13778;48.236;9.894;2023-09-12T15:12:48;9.27;;;6.72;;
25988;SDS011;13778;48.236;9.894;2023-09-12T15:15:40;8.93;;;7.17;;
25988;SDS011;13778;48.236;9.894;2023-09-12T15:18:30;7.30;;;6.65;;
25988;SDS011;13778;48.236;9.894;2023-09-12T15:21:21;8.52;;;6.60;;
25988;SDS011;13778;48.236;9.894;2023-09-12T15:24:11;9.07;;;7.13;;
25988;SDS011;13778;48.236;9.894;2023-09-12T15:27:02;8.23;;;6.63;;
25988;SDS011;13778;48.236;9.894;2023-09-12T15:29:52;11.70;;;6.43;;
25988;SDS011;13778;48.236;9.894;2023-09-12T15:32:44;7.85;;;6.93;;
25988;SDS011;13778;48.236;9.894;2023-09-12T15:35:35;8.85;;;6.93;;
25988;SDS011;13778;48.236;9.894;2023-09-12T15:38:26;11.07;;;7.35;;
25988;SDS011;13778;48.236;9.894;2023-09-12T15:41:17;8.90;;;7.82;;
25988;SDS011;13778;48.236;9.894;2023-09-12T15:44:08;12.17;;;7.47;;
25988;SDS011;13778;48.236;9.894;2023-09-12T15:46:58;9.95;;;7.35;;
25988;SDS011;13778;48.236;9.894;2023-09-12T15:49:51;9.57;;;7.55;;
25988;SDS011;13778;48.236;9.894;2023-09-12T15:52:41;8.27;;;7.38;;
25988;SDS011;13778;48.236;9.894;2023-09-12T15:55:32;10.50;;;7.90;;
25988;SDS011;13778;48.236;9.894;2023-09-12T15:58:22;9.88;;;7.85;;
25988;SDS011;13778;48.236;9.894;2023-09-12T16:01:16;11.25;;;7.90;;
25988;SDS011;13778;48.236;9.894;2023-09-12T16:04:06;9.65;;;7.18;;
25988;SDS011;13778;48.236;9.894;2023-09-12T16:06:58;10.40;;;7.37;;
25988;SDS011;13778;48.236;9.894;2023-09-12T16:09:49;11.23;;;9.40;;
25988;SDS011;13778;48.236;9.894;2023-09-12T16:12:39;16.50;;;10.40;;
25988;SDS011;13778;48.236;9.894;2023-09-12T16:15:32;10.13;;;8.02;;
25988;SDS011;13778;48.236;9.894;2023-09-12T16:18:22;11.82;;;8.30;;
25988;SDS011;13778;48.236;9.894;2023-09-12T16:21:14;14.05;;;8.80;;
25988;SDS011;13778;48.236;9.894;2023-09-12T16:24:07;12.05;;;9.60;;
25988;SDS011;13778;48.236;9.894;2023-09-12T16:26:59;21.58;;;9.55;;
25988;SDS011;13778;48.236;9.894;2023-09-12T16:29:49;20.70;;;9.95;;
25988;SDS011;13778;48.236;9.894;2023-09-12T16:32:40;20.17;;;11.00;;
25988;SDS011;13778;48.236;9.894;2023-09-12T16:35:30;19.38;;;10.32;;
25988;SDS011;13778;48.236;9.894;2023-09-12T16:38:21;8.77;;;5.18;;
25988;SDS011;13778;48.236;9.894;2023-09-12T16:41:13;4.90;;;4.40;;
25988;SDS011;13778;48.236;9.894;2023-09-12T16:44:03;14.90;;;5.20;;
25988;SDS011;13778;48.236;9.894;2023-09-12T16:46:53;8.95;;;5.68;;
25988;SDS011;13778;48.236;9.894;2023-09-12T16:49:45;5.50;;;3.63;;
25988;SDS011;13778;48.236;9.894;2023-09-12T16:52:35;8.80;;;3.45;;
25988;SDS011;13778;48.236;9.894;2023-09-12T16:55:26;6.82;;;3.92;;
25988;SDS011;13778;48.236;9.894;2023-09-12T16:58:17;7.72;;;3.92;;
25988;SDS011;13778;48.236;9.894;2023-09-12T17:01:08;7.97;;;3.70;;
25988;SDS011;13778;48.236;9.894;2023-09-12T17:04:00;5.63;;;4.18;;
25988;SDS011;13778;48.236;9.894;2023-09-12T17:09:41;6.93;;;4.20;;
25988;SDS011;13778;48.236;9.894;2023-09-12T17:12:33;6.68;;;4.03;;
25988;SDS011;13778;48.236;9.894;2023-09-12T17:15:24;5.82;;;3.95;;
25988;SDS011;13778;48.236;9.894;2023-09-12T17:21:05;8.10;;;4.22;;
25988;SDS011;13778;48.236;9.894;2023-09-12T17:23:55;7.68;;;4.47;;
25988;SDS011;13778;48.236;9.894;2023-09-12T17:26:46;7.03;;;4.50;;
25988;SDS011;13778;48.236;9.894;2023-09-12T17:29:36;6.07;;;4.90;;
25988;SDS011;13778;48.236;9.894;2023-09-12T17:32:28;8.02;;;4.88;;
25988;SDS011;13778;48.236;9.894;2023-09-12T17:35:19;6.30;;;4.82;;
25988;SDS011;13778;48.236;9.894;2023-09-12T17:38:10;5.05;;;4.60;;